createdAt,value
2019-01-25T00:01:29.868Z,99543.43
2019-01-25T00:03:58.126Z,99545.99
2019-01-25T00:06:24.439Z,99547.14
2019-01-25T00:08:50.783Z,99540.94
2019-01-25T00:11:17.119Z,99549.06
2019-01-25T00:13:43.643Z,99551.44
2019-01-25T00:16:09.957Z,99553.32
2019-01-25T00:18:36.510Z,99554.36
2019-01-25T00:21:03.324Z,99554.25
2019-01-25T00:23:29.632Z,99555.05
2019-01-25T00:25:55.944Z,99550.90
2019-01-25T00:28:22.548Z,99550.80
2019-01-25T00:30:48.889Z,99553.97
2019-01-25T00:33:15.440Z,99555.61
2019-01-25T00:35:41.748Z,99554.41
2019-01-25T00:38:08.117Z,99556.78
2019-01-25T00:40:34.710Z,99563.96
2019-01-25T00:43:01.014Z,99558.61
2019-01-25T00:45:27.729Z,99552.52
2019-01-25T00:47:54.037Z,99560.06
2019-01-25T00:50:20.753Z,99556.28
2019-01-25T00:52:47.910Z,99567.94
2019-01-25T00:55:14.645Z,99566.46
2019-01-25T00:57:41.086Z,99570.75
2019-01-25T01:00:15.700Z,99568.51
2019-01-25T01:02:42.432Z,99566.46
2019-01-25T01:05:09.160Z,99561.39
2019-01-25T01:07:35.527Z,99566.46
2019-01-25T01:10:03.915Z,99573.64
2019-01-25T01:12:30.229Z,99572.80
2019-01-25T01:14:56.577Z,99565.13
2019-01-25T01:17:22.882Z,99574.03
2019-01-25T01:19:49.687Z,99569.09
2019-01-25T01:22:16.004Z,99573.13
2019-01-25T01:24:42.369Z,99578.36
2019-01-25T01:27:08.932Z,99583.61
2019-01-25T01:29:35.278Z,99584.02
2019-01-25T01:32:01.632Z,99581.85
2019-01-25T01:34:28.205Z,99582.52
2019-01-25T01:36:54.825Z,99577.52
2019-01-25T01:39:21.109Z,99587.13
2019-01-25T01:41:47.468Z,99583.63
2019-01-25T01:44:13.770Z,99596.52
2019-01-25T01:46:40.350Z,99593.11
2019-01-25T01:49:06.656Z,99597.19
2019-01-25T01:51:32.986Z,99594.09
2019-01-25T01:53:59.557Z,99589.37
2019-01-25T01:56:26.148Z,99590.03
2019-01-25T01:58:52.719Z,99595.50
2019-01-25T02:01:19.292Z,99596.60
2019-01-25T02:03:45.905Z,99592.53
2019-01-25T02:06:12.265Z,99592.41
2019-01-25T02:08:38.587Z,99596.45
2019-01-25T02:11:05.094Z,99601.59
2019-01-25T02:13:31.394Z,99598.73
2019-01-25T02:15:57.731Z,99597.62
2019-01-25T02:18:24.063Z,99596.70
2019-01-25T02:20:50.597Z,99595.49
2019-01-25T02:23:17.016Z,99592.89
2019-01-25T02:25:43.417Z,99597.77
2019-01-25T02:28:10.053Z,99598.11
2019-01-25T02:30:36.678Z,99590.94
2019-01-25T02:33:03.125Z,99593.23
2019-01-25T02:35:30.725Z,99596.77
2019-01-25T02:37:57.085Z,99594.64
2019-01-25T02:40:24.084Z,99591.74
2019-01-25T02:42:50.517Z,99588.95
2019-01-25T02:45:16.837Z,99590.70
2019-01-25T02:47:43.198Z,99588.19
2019-01-25T02:50:12.812Z,99586.08
2019-01-25T02:52:39.175Z,99587.93
2019-01-25T02:55:08.286Z,99600.64
2019-01-25T02:57:34.928Z,99599.25
2019-01-25T03:00:01.928Z,99599.42
2019-01-25T03:02:29.971Z,99599.48
2019-01-25T03:04:56.525Z,99596.25
2019-01-25T03:07:23.147Z,99598.78
2019-01-25T03:09:49.530Z,99598.05
2019-01-25T03:12:15.905Z,99594.20
2019-01-25T03:14:42.236Z,99598.75
2019-01-25T03:17:08.546Z,99604.05
2019-01-25T03:19:34.897Z,99601.66
2019-01-25T03:22:01.230Z,99594.12
2019-01-25T03:24:27.831Z,99605.16
2019-01-25T03:26:54.154Z,99608.86
2019-01-25T03:29:20.722Z,99609.01
2019-01-25T03:31:47.322Z,99595.06
2019-01-25T03:34:13.870Z,99601.01
2019-01-25T03:36:40.447Z,99603.17
2019-01-25T03:39:07.579Z,99604.34
2019-01-25T03:41:33.917Z,99607.59
2019-01-25T03:44:00.631Z,99599.50
2019-01-25T03:46:26.965Z,99603.61
2019-01-25T03:48:53.586Z,99611.21
2019-01-25T03:51:19.936Z,99606.38
2019-01-25T03:53:46.514Z,99603.02
2019-01-25T03:56:12.843Z,99604.36
2019-01-25T03:58:39.161Z,99603.72
2019-01-25T04:01:05.763Z,99599.56
2019-01-25T04:03:32.086Z,99595.81
2019-01-25T04:05:58.415Z,99602.89
2019-01-25T04:08:24.770Z,99603.24
2019-01-25T04:10:51.128Z,99610.10
2019-01-25T04:13:17.760Z,99603.82
2019-01-25T04:15:44.059Z,99598.42
2019-01-25T04:18:10.693Z,99603.00
2019-01-25T04:20:36.975Z,99593.69
2019-01-25T04:23:03.937Z,99592.23
2019-01-25T04:25:30.250Z,99594.79
2019-01-25T04:27:56.563Z,99600.91
2019-01-25T04:30:25.697Z,99594.47
2019-01-25T04:32:52.285Z,99604.02
2019-01-25T04:35:18.746Z,99600.27
2019-01-25T04:37:45.254Z,99605.67
2019-01-25T04:40:14.977Z,99600.38
2019-01-25T04:42:41.423Z,99606.08
2019-01-25T04:45:11.631Z,99603.79
2019-01-25T04:47:37.994Z,99608.92
2019-01-25T04:50:17.068Z,99612.36
2019-01-25T04:52:43.415Z,99610.00
2019-01-25T04:55:22.494Z,99616.92
2019-01-25T04:57:49.184Z,99623.30
2019-01-25T05:00:19.260Z,99623.55
2019-01-25T05:02:53.213Z,99622.80
2019-01-25T05:05:19.557Z,99620.58
2019-01-25T05:07:45.846Z,99616.59
2019-01-25T05:10:12.169Z,99616.28
2019-01-25T05:12:38.780Z,99617.27
2019-01-25T05:15:05.525Z,99621.86
2019-01-25T05:17:31.926Z,99622.30
2019-01-25T05:19:58.531Z,99611.25
2019-01-25T05:22:25.148Z,99620.58
2019-01-25T05:24:51.479Z,99619.70
2019-01-25T05:27:17.835Z,99621.63
2019-01-25T05:29:52.381Z,99619.69
2019-01-25T05:32:18.725Z,99627.80
2019-01-25T05:34:45.342Z,99625.94
2019-01-25T05:37:11.920Z,99630.73
2019-01-25T05:39:38.279Z,99626.38
2019-01-25T05:42:05.058Z,99632.39
2019-01-25T05:44:31.409Z,99635.20
2019-01-25T05:46:57.765Z,99631.17
2019-01-25T05:49:24.215Z,99631.55
2019-01-25T05:51:50.562Z,99635.56
2019-01-25T05:54:17.150Z,99628.37
2019-01-25T05:56:43.492Z,99631.75
2019-01-25T05:59:10.098Z,99631.20
2019-01-25T06:01:40.263Z,99633.68
2019-01-25T06:04:06.559Z,99637.16
2019-01-25T06:06:33.133Z,99635.08
2019-01-25T06:08:59.720Z,99637.36
2019-01-25T06:11:26.042Z,99636.82
2019-01-25T06:13:52.374Z,99637.63
2019-01-25T06:16:18.702Z,99640.94
2019-01-25T06:18:45.031Z,99641.72
2019-01-25T06:21:12.749Z,99643.27
2019-01-25T06:23:39.099Z,99641.41
2019-01-25T06:26:05.820Z,99643.98
2019-01-25T06:28:32.327Z,99643.95
2019-01-25T06:30:58.668Z,99641.96
2019-01-25T06:33:25.988Z,99654.00
2019-01-25T06:35:53.354Z,99651.70
2019-01-25T06:38:19.850Z,99657.13
2019-01-25T06:40:46.217Z,99660.51
2019-01-25T06:43:12.542Z,99667.91
2019-01-25T06:45:38.880Z,99662.09
2019-01-25T06:48:05.477Z,99666.01
2019-01-25T06:50:31.941Z,99672.48
2019-01-25T06:52:58.282Z,99671.98
2019-01-25T06:55:24.888Z,99671.52
2019-01-25T06:58:02.194Z,99674.80
2019-01-25T07:00:30.406Z,99681.41
2019-01-25T07:02:56.777Z,99683.09
2019-01-25T07:05:23.414Z,99685.89
2019-01-25T07:07:49.775Z,99685.06
2019-01-25T07:10:18.779Z,99688.86
2019-01-25T07:12:45.149Z,99688.16
2019-01-25T07:15:13.494Z,99691.31
2019-01-25T07:17:39.799Z,99690.45
2019-01-25T07:20:11.201Z,99685.19
2019-01-25T07:22:37.782Z,99692.14
2019-01-25T07:25:08.563Z,99691.17
2019-01-25T07:27:35.252Z,99701.41
2019-01-25T07:30:03.489Z,99696.31
2019-01-25T07:32:30.145Z,99706.00
2019-01-25T07:34:56.689Z,99697.48
2019-01-25T07:37:23.055Z,99705.90
2019-01-25T07:39:50.037Z,99712.78
2019-01-25T07:42:16.420Z,99715.61
2019-01-25T07:44:42.861Z,99717.84
2019-01-25T07:47:09.478Z,99714.38
2019-01-25T07:49:35.828Z,99724.67
2019-01-25T07:52:02.818Z,99729.14
2019-01-25T07:54:29.710Z,99735.34
2019-01-25T07:56:56.362Z,99729.22
2019-01-25T07:59:22.999Z,99738.38
2019-01-25T08:01:49.741Z,99738.81
2019-01-25T08:04:16.305Z,99752.10
2019-01-25T08:06:42.646Z,99756.44
2019-01-25T08:09:09.060Z,99747.66
2019-01-25T08:11:35.488Z,99752.66
2019-01-25T08:14:02.249Z,99753.28
2019-01-25T08:16:29.015Z,99748.36
2019-01-25T08:18:55.579Z,99757.37
2019-01-25T08:21:22.391Z,99764.59
2019-01-25T08:23:49.047Z,99759.13
2019-01-25T08:26:15.621Z,99765.55
2019-01-25T08:28:42.195Z,99768.64
2019-01-25T08:31:08.929Z,99767.75
2019-01-25T08:33:35.527Z,99767.20
2019-01-25T08:36:01.843Z,99765.48
2019-01-25T08:38:28.218Z,99764.67
2019-01-25T08:40:56.701Z,99771.00
2019-01-25T08:43:23.124Z,99760.11
2019-01-25T08:45:49.952Z,99752.91
2019-01-25T08:48:16.773Z,99757.77
2019-01-25T08:50:43.404Z,99755.97
2019-01-25T08:53:09.832Z,99756.05
2019-01-25T08:55:36.225Z,99751.40
2019-01-25T08:58:03.412Z,99752.19
2019-01-25T09:00:30.024Z,99745.94
2019-01-25T09:02:56.397Z,99753.52
2019-01-25T09:05:22.829Z,99755.46
2019-01-25T09:07:49.159Z,99760.45
2019-01-25T09:10:19.455Z,99752.97
2019-01-25T09:12:47.676Z,99750.03
2019-01-25T09:15:22.669Z,99760.16
2019-01-25T09:17:49.246Z,99751.33
2019-01-25T09:20:18.691Z,99765.41
2019-01-25T09:22:45.018Z,99765.29
2019-01-25T09:25:11.798Z,99763.92
2019-01-25T09:27:38.341Z,99756.48
2019-01-25T09:30:15.106Z,99765.25
2019-01-25T09:32:43.788Z,99765.81
2019-01-25T09:35:10.766Z,99769.97
2019-01-25T09:37:38.309Z,99769.33
2019-01-25T09:40:10.529Z,99769.83
2019-01-25T09:42:37.237Z,99765.33
2019-01-25T09:45:08.632Z,99775.25
2019-01-25T09:47:35.168Z,99768.05
2019-01-25T09:50:02.820Z,99769.66
2019-01-25T09:52:29.598Z,99771.95
2019-01-25T09:54:55.986Z,99768.98
2019-01-25T09:57:22.371Z,99767.31
2019-01-25T09:59:49.087Z,99765.69
2019-01-25T10:02:15.424Z,99769.45
2019-01-25T10:04:41.787Z,99767.77
2019-01-25T10:07:08.386Z,99770.17
2019-01-25T10:09:34.767Z,99771.89
2019-01-25T10:12:01.404Z,99769.09
2019-01-25T10:14:27.699Z,99760.16
2019-01-25T10:16:54.424Z,99761.27
2019-01-25T10:19:20.723Z,99755.31
2019-01-25T10:21:47.334Z,99754.98
2019-01-25T10:24:13.718Z,99755.84
2019-01-25T10:26:40.069Z,99752.23
2019-01-25T10:29:06.419Z,99741.19
2019-01-25T10:31:35.949Z,99738.46
2019-01-25T10:34:02.347Z,99735.34
2019-01-25T10:36:28.719Z,99735.00
2019-01-25T10:38:55.083Z,99734.34
2019-01-25T10:41:21.472Z,99737.17
2019-01-25T10:43:48.182Z,99733.57
2019-01-25T10:46:14.537Z,99734.98
2019-01-25T10:48:40.888Z,99734.25
2019-01-25T10:51:07.255Z,99740.16
2019-01-25T10:53:33.832Z,99744.52
2019-01-25T10:56:00.411Z,99739.66
2019-01-25T10:58:26.726Z,99740.34
2019-01-25T11:00:53.090Z,99734.16
2019-01-25T11:03:19.499Z,99738.23
2019-01-25T11:05:45.830Z,99730.20
2019-01-25T11:08:12.154Z,99731.20
2019-01-25T11:10:38.729Z,99725.52
2019-01-25T11:13:05.425Z,99730.41
2019-01-25T11:15:31.783Z,99727.94
2019-01-25T11:17:58.364Z,99723.80
2019-01-25T11:20:25.581Z,99719.94
2019-01-25T11:22:52.540Z,99716.89
2019-01-25T11:25:23.571Z,99711.47
2019-01-25T11:27:49.979Z,99713.48
2019-01-25T11:30:16.810Z,99706.95
2019-01-25T11:32:43.150Z,99714.25
2019-01-25T11:35:09.992Z,99707.20
2019-01-25T11:37:36.323Z,99710.84
2019-01-25T11:40:11.187Z,99711.67
2019-01-25T11:42:37.521Z,99715.05
2019-01-25T11:45:09.566Z,99707.48
2019-01-25T11:47:35.929Z,99709.70
2019-01-25T11:50:10.427Z,99714.03
2019-01-25T11:52:36.798Z,99707.89
2019-01-25T11:55:06.322Z,99714.30
2019-01-25T11:57:34.089Z,99705.63
2019-01-25T12:00:00.411Z,99716.63
2019-01-25T12:02:27.047Z,99707.38
2019-01-25T12:04:53.443Z,99707.19
2019-01-25T12:07:19.888Z,99707.23
2019-01-25T12:09:46.357Z,99716.81
2019-01-25T12:12:12.720Z,99717.33
2019-01-25T12:14:39.333Z,99718.19
2019-01-25T12:17:05.677Z,99708.73
2019-01-25T12:19:32.039Z,99715.23
2019-01-25T12:21:58.405Z,99722.22
2019-01-25T12:24:26.384Z,99719.81
2019-01-25T12:26:52.901Z,99718.53
2019-01-25T12:29:19.268Z,99713.69
2019-01-25T12:31:46.664Z,99710.34
2019-01-25T12:34:13.981Z,99706.75
2019-01-25T12:36:40.636Z,99710.06
2019-01-25T12:39:07.154Z,99715.12
2019-01-25T12:41:33.664Z,99702.00
2019-01-25T12:44:00.030Z,99693.00
2019-01-25T12:46:26.699Z,99689.11
2019-01-25T12:48:53.342Z,99684.69
2019-01-25T12:51:20.029Z,99681.09
2019-01-25T12:53:46.639Z,99679.77
2019-01-25T12:56:13.174Z,99685.17
2019-01-25T12:58:41.004Z,99678.63
2019-01-25T13:01:09.407Z,99634.50
2019-01-25T13:03:36.240Z,99676.42
2019-01-25T13:06:04.097Z,99670.68
2019-01-25T13:08:30.437Z,99661.88
2019-01-25T13:10:57.076Z,99663.16
2019-01-25T13:13:31.347Z,99657.77
2019-01-25T13:15:52.666Z,99654.34
2019-01-25T13:18:19.245Z,99655.80
2019-01-25T13:20:45.843Z,99657.66
2019-01-25T13:23:12.415Z,99647.81
2019-01-25T13:25:38.994Z,99647.25
2019-01-25T13:28:05.844Z,99644.38
2019-01-25T13:30:32.233Z,99656.05
2019-01-25T13:32:58.780Z,99654.12
2019-01-25T13:35:25.382Z,99660.11
2019-01-25T13:37:52.229Z,99654.56
2019-01-25T13:40:21.453Z,99658.83
2019-01-25T13:42:48.135Z,99654.81
2019-01-25T13:45:19.184Z,99654.10
2019-01-25T13:47:46.281Z,99652.58
2019-01-25T13:50:16.374Z,99653.54
2019-01-25T13:52:42.892Z,99657.30
2019-01-25T13:55:12.314Z,99653.83
2019-01-25T13:57:39.065Z,99656.18
2019-01-25T14:00:11.339Z,99658.84
2019-01-25T14:02:37.714Z,99653.66
2019-01-25T14:05:07.405Z,99660.71
2019-01-25T14:07:33.764Z,99662.38
2019-01-25T14:10:00.349Z,99659.10
2019-01-25T14:12:26.705Z,99668.19
2019-01-25T14:14:53.335Z,99662.05
2019-01-25T14:17:19.881Z,99661.69
2019-01-25T14:19:46.196Z,99666.45
2019-01-25T14:22:21.025Z,99658.83
2019-01-25T14:24:47.567Z,99661.56
2019-01-25T14:27:13.925Z,99662.27
2019-01-25T14:29:40.230Z,99674.32
2019-01-25T14:32:08.107Z,99671.73
2019-01-25T14:34:34.831Z,99665.00
2019-01-25T14:37:01.377Z,99665.42
2019-01-25T14:39:27.977Z,99669.54
2019-01-25T14:41:54.291Z,99670.34
2019-01-25T14:44:20.883Z,99667.98
2019-01-25T14:46:47.231Z,99669.24
2019-01-25T14:49:13.688Z,99661.24
2019-01-25T14:51:40.297Z,99657.31
2019-01-25T14:54:06.644Z,99663.48
2019-01-25T14:56:33.027Z,99657.61
2019-01-25T14:58:59.382Z,99661.92
2019-01-25T15:01:25.710Z,99657.11
2019-01-25T15:03:52.044Z,99656.16
2019-01-25T15:06:18.618Z,99659.05
2019-01-25T15:08:44.973Z,99659.66
2019-01-25T15:11:11.290Z,99664.17
2019-01-25T15:13:37.848Z,99668.40
2019-01-25T15:16:04.397Z,99680.23
2019-01-25T15:18:31.856Z,99686.19
2019-01-25T15:20:58.623Z,99685.34
2019-01-25T15:23:24.918Z,99680.81
2019-01-25T15:25:51.558Z,99680.05
2019-01-25T15:28:18.235Z,99679.92
2019-01-25T15:30:44.565Z,99679.25
2019-01-25T15:33:12.556Z,99677.92
2019-01-25T15:35:38.930Z,99674.45
2019-01-25T15:38:05.400Z,99670.40
2019-01-25T15:40:32.177Z,99666.28
2019-01-25T15:42:58.642Z,99668.84
2019-01-25T15:45:24.977Z,99665.18
2019-01-25T15:47:51.908Z,99673.16
2019-01-25T15:50:25.567Z,99670.29
2019-01-25T15:52:52.469Z,99670.27
2019-01-25T15:55:19.618Z,99667.59
2019-01-25T15:57:50.322Z,99665.58
2019-01-25T16:00:20.661Z,99662.16
2019-01-25T16:02:47.198Z,99662.22
2019-01-25T16:05:16.289Z,99656.13
2019-01-25T16:07:42.748Z,99658.89
2019-01-25T16:10:12.863Z,99660.23
2019-01-25T16:12:39.607Z,99649.73
2019-01-25T16:15:12.961Z,99661.20
2019-01-25T16:17:39.390Z,99666.16
2019-01-25T16:20:10.602Z,99661.54
2019-01-25T16:22:36.909Z,99660.10
2019-01-25T16:25:08.558Z,99667.84
2019-01-25T16:27:34.900Z,99669.30
2019-01-25T16:30:01.477Z,99664.87
2019-01-25T16:32:28.250Z,99661.38
2019-01-25T16:34:54.812Z,99657.11
2019-01-25T16:37:21.150Z,99654.37
2019-01-25T16:39:47.477Z,99656.45
2019-01-25T16:42:13.795Z,99661.48
2019-01-25T16:44:40.136Z,99664.33
2019-01-25T16:47:06.877Z,99668.20
2019-01-25T16:49:33.562Z,99660.16
2019-01-25T16:51:59.904Z,99662.14
2019-01-25T16:54:26.566Z,99661.13
2019-01-25T16:56:53.453Z,99655.44
2019-01-25T16:59:20.022Z,99657.13
2019-01-25T17:01:46.330Z,99651.77
2019-01-25T17:04:12.949Z,99651.52
2019-01-25T17:06:39.275Z,99651.56
2019-01-25T17:09:06.445Z,99656.02
2019-01-25T17:11:32.977Z,99651.57
2019-01-25T17:13:59.286Z,99658.98
2019-01-25T17:16:25.622Z,99656.42
2019-01-25T17:18:52.223Z,99659.00
2019-01-25T17:21:18.647Z,99663.47
2019-01-25T17:23:47.031Z,99662.68
2019-01-25T17:26:14.910Z,99657.72
2019-01-25T17:28:41.648Z,99657.41
2019-01-25T17:31:08.003Z,99662.64
2019-01-25T17:33:34.611Z,99655.16
2019-01-25T17:36:01.698Z,99662.19
2019-01-25T17:38:28.300Z,99660.84
2019-01-25T17:40:54.612Z,99659.25
2019-01-25T17:43:23.013Z,99673.64
2019-01-25T17:45:49.855Z,99667.56
2019-01-25T17:48:16.425Z,99672.41
2019-01-25T17:50:43.012Z,99669.56
2019-01-25T17:53:09.711Z,99668.94
2019-01-25T17:55:36.284Z,99664.32
2019-01-25T17:58:08.121Z,99662.05
2019-01-25T18:00:35.252Z,99659.34
2019-01-25T18:03:02.142Z,99654.48
2019-01-25T18:05:28.619Z,99646.38
2019-01-25T18:07:55.190Z,99647.09
2019-01-25T18:10:26.069Z,99649.30
2019-01-25T18:12:52.652Z,99656.90
2019-01-25T18:15:19.394Z,99652.84
2019-01-25T18:17:45.701Z,99681.89
2019-01-25T18:20:20.959Z,99679.39
2019-01-25T18:22:47.592Z,99678.27
2019-01-25T18:25:31.584Z,99677.02
2019-01-25T18:28:02.576Z,99667.46
2019-01-25T18:30:35.202Z,99667.53
2019-01-25T18:33:02.013Z,99664.80
2019-01-25T18:35:28.612Z,99666.21
2019-01-25T18:37:55.039Z,99664.60
2019-01-25T18:40:21.395Z,99661.70
2019-01-25T18:42:47.916Z,99663.63
2019-01-25T18:45:14.282Z,99663.22
2019-01-25T18:47:41.981Z,99659.89
2019-01-25T18:50:14.626Z,99646.57
2019-01-25T18:52:41.257Z,99642.63
2019-01-25T18:55:17.388Z,99636.81
2019-01-25T18:57:43.786Z,99632.84
2019-01-25T19:00:16.125Z,99620.77
2019-01-25T19:02:42.990Z,99619.05
2019-01-25T19:05:09.709Z,99616.97
2019-01-25T19:07:36.455Z,99628.54
2019-01-25T19:10:17.164Z,99623.52
2019-01-25T19:12:43.603Z,99618.97
2019-01-25T19:15:15.981Z,99615.36
2019-01-25T19:17:43.355Z,99609.39
2019-01-25T19:20:12.909Z,99611.94
2019-01-25T19:22:39.399Z,99613.58
2019-01-25T19:25:08.865Z,99610.16
2019-01-25T19:27:35.606Z,99600.01
2019-01-25T19:30:16.412Z,99589.72
2019-01-25T19:32:43.885Z,99587.15
2019-01-25T19:35:15.906Z,99586.70
2019-01-25T19:37:42.711Z,99577.61
2019-01-25T19:40:25.460Z,99569.80
2019-01-25T19:42:51.929Z,99565.59
2019-01-25T19:45:18.531Z,99564.34
2019-01-25T19:47:45.266Z,99561.56
2019-01-25T19:50:16.188Z,99561.20
2019-01-25T19:52:42.801Z,99550.53
2019-01-25T19:55:15.227Z,99553.00
2019-01-25T19:57:41.767Z,99546.31
2019-01-25T20:00:15.692Z,99540.70
2019-01-25T20:02:42.309Z,99538.64
2019-01-25T20:05:14.058Z,99537.92
2019-01-25T20:07:40.397Z,99533.41
2019-01-25T20:10:10.766Z,99522.55
2019-01-25T20:12:37.396Z,99517.55
2019-01-25T20:15:09.385Z,99518.22
2019-01-25T20:17:43.442Z,99528.34
2019-01-25T20:20:21.151Z,99527.35
2019-01-25T20:22:52.341Z,99524.48
2019-01-25T20:25:18.977Z,99516.53
2019-01-25T20:27:45.866Z,99509.12
2019-01-25T20:30:20.837Z,99524.53
2019-01-25T20:32:47.816Z,99519.55
2019-01-25T20:35:20.944Z,99508.34
2019-01-25T20:37:47.387Z,99501.14
2019-01-25T20:40:16.175Z,99498.48
2019-01-25T20:42:44.041Z,99494.95
2019-01-25T20:45:15.409Z,99490.11
2019-01-25T20:47:41.844Z,99493.66
2019-01-25T20:50:12.949Z,99489.38
2019-01-25T20:52:39.288Z,99483.04
2019-01-25T20:55:10.708Z,99479.11
2019-01-25T20:57:37.086Z,99475.20
2019-01-25T21:00:17.026Z,99472.91
2019-01-25T21:02:43.695Z,99473.91
2019-01-25T21:05:10.418Z,99474.50
2019-01-25T21:07:37.005Z,99467.03
2019-01-25T21:10:09.105Z,99456.83
2019-01-25T21:12:35.743Z,99446.63
2019-01-25T21:15:05.286Z,99445.15
2019-01-25T21:17:31.724Z,99440.58
2019-01-25T21:19:58.021Z,99433.66
2019-01-25T21:22:24.832Z,99434.49
2019-01-25T21:24:51.149Z,99427.39
2019-01-25T21:27:17.756Z,99419.52
2019-01-25T21:29:44.831Z,99420.78
2019-01-25T21:32:11.306Z,99416.88
2019-01-25T21:34:37.926Z,99415.71
2019-01-25T21:37:04.245Z,99424.70
2019-01-25T21:39:30.885Z,99414.42
2019-01-25T21:41:57.498Z,99414.87
2019-01-25T21:44:23.849Z,99423.32
2019-01-25T21:46:50.154Z,99419.13
2019-01-25T21:49:16.757Z,99407.61
2019-01-25T21:51:43.609Z,99395.88
2019-01-25T21:54:10.233Z,99389.48
2019-01-25T21:56:36.620Z,99392.22
2019-01-25T21:59:03.019Z,99387.34
2019-01-25T22:01:29.382Z,99377.25
2019-01-25T22:03:55.989Z,99384.66
2019-01-25T22:06:22.945Z,99374.98
2019-01-25T22:08:49.947Z,99371.05
2019-01-25T22:11:16.288Z,99362.73
2019-01-25T22:13:42.627Z,99363.02
2019-01-25T22:16:08.932Z,99356.62
2019-01-25T22:18:35.549Z,99361.19
2019-01-25T22:21:02.239Z,99350.19
2019-01-25T22:23:28.644Z,99353.28
2019-01-25T22:25:55.207Z,99339.10
2019-01-25T22:28:21.553Z,99352.11
2019-01-25T22:30:48.058Z,99353.55
2019-01-25T22:33:14.764Z,99363.63
2019-01-25T22:35:41.139Z,99350.84
2019-01-25T22:38:07.456Z,99345.95
2019-01-25T22:40:34.090Z,99353.25
2019-01-25T22:43:00.769Z,99345.80
2019-01-25T22:45:28.909Z,99332.11
2019-01-25T22:47:57.073Z,99332.30
2019-01-25T22:50:26.321Z,99327.58
2019-01-25T22:52:52.736Z,99322.80
2019-01-25T22:55:21.221Z,99323.16
2019-01-25T22:57:48.008Z,99315.73
2019-01-25T23:00:53.419Z,99312.41
2019-01-25T23:03:31.947Z,99313.17
2019-01-25T23:06:29.963Z,99308.23
2019-01-25T23:09:01.507Z,99310.56
2019-01-25T23:11:29.739Z,99309.77
2019-01-25T23:13:56.078Z,99310.58
2019-01-25T23:16:22.796Z,99310.18
2019-01-25T23:18:49.141Z,99299.63
2019-01-25T23:21:15.480Z,99295.19
2019-01-25T23:23:42.124Z,99286.20
2019-01-25T23:26:08.709Z,99284.97
2019-01-25T23:28:35.041Z,99280.75
2019-01-25T23:31:01.366Z,99271.80
2019-01-25T23:33:27.698Z,99270.88
2019-01-25T23:35:54.377Z,99269.84
2019-01-25T23:38:20.722Z,99275.16
2019-01-25T23:40:47.075Z,99267.53
2019-01-25T23:43:14.660Z,99258.78
2019-01-25T23:45:41.270Z,99256.61
2019-01-25T23:48:07.631Z,99259.34
2019-01-25T23:50:33.959Z,99252.07
2019-01-25T23:53:00.710Z,99257.16
2019-01-25T23:55:27.108Z,99245.59
2019-01-25T23:57:53.707Z,99245.77
